createdAt,value
2022-08-25T00:00:12.217Z,1004.23
2022-08-25T00:00:34.236Z,1003.83
2022-08-25T00:01:00.009Z,1003.83
2022-08-25T00:01:32.452Z,1003.83
2022-08-25T00:02:04.753Z,1004.03
2022-08-25T00:02:34.809Z,1003.83
2022-08-25T00:02:56.523Z,1003.83
2022-08-25T00:03:23.923Z,1003.83
2022-08-25T00:03:41.519Z,1003.83
2022-08-25T00:04:11.808Z,1003.83
2022-08-25T00:04:35.013Z,1004.13
2022-08-25T00:04:59.846Z,1004.13
2022-08-25T00:05:32.256Z,1004.13
2022-08-25T00:06:04.467Z,1003.83
2022-08-25T00:06:36.280Z,1003.83
2022-08-25T00:07:09.495Z,1003.83
2022-08-25T00:07:35.048Z,1004.03
2022-08-25T00:07:55.878Z,1004.03
2022-08-25T00:08:27.836Z,1004.03
2022-08-25T00:08:59.982Z,1003.83
2022-08-25T00:09:31.769Z,1003.83
2022-08-25T00:10:03.933Z,1003.93
2022-08-25T00:10:35.620Z,1004.23
2022-08-25T00:11:07.775Z,1004.23
2022-08-25T00:11:35.199Z,1003.83
2022-08-25T00:11:55.763Z,1003.83
2022-08-25T00:12:28.735Z,1003.83
2022-08-25T00:12:59.912Z,1003.83
2022-08-25T00:13:32.396Z,1003.83
2022-08-25T00:14:03.771Z,1003.93
2022-08-25T00:14:34.797Z,1003.83
2022-08-25T00:15:07.997Z,1003.83
2022-08-25T00:15:34.208Z,1003.93
2022-08-25T00:15:56.817Z,1003.93
2022-08-25T00:16:27.761Z,1003.93
2022-08-25T00:17:00.319Z,1003.83
2022-08-25T00:17:31.780Z,1003.83
2022-08-25T00:18:04.746Z,1004.03
2022-08-25T00:18:34.155Z,1003.93
2022-08-25T00:18:51.839Z,1003.93
2022-08-25T00:19:23.861Z,1003.93
2022-08-25T00:19:40.963Z,1003.93
2022-08-25T00:20:13.874Z,1003.93
2022-08-25T00:20:34.138Z,1004.03
2022-08-25T00:21:00.849Z,1004.03
2022-08-25T00:21:31.849Z,1004.03
2022-08-25T00:22:03.934Z,1003.93
2022-08-25T00:22:34.211Z,1004.03
2022-08-25T00:22:51.779Z,1004.03
2022-08-25T00:23:24.276Z,1004.03
2022-08-25T00:23:41.405Z,1004.03
2022-08-25T00:24:11.935Z,1004.03
2022-08-25T00:24:34.833Z,1003.62
2022-08-25T00:25:00.667Z,1003.62
2022-08-25T00:25:32.676Z,1003.62
2022-08-25T00:26:04.657Z,1004.03
2022-08-25T00:26:36.025Z,1003.93
2022-08-25T00:27:07.775Z,1003.93
2022-08-25T00:27:34.151Z,1004.03
2022-08-25T00:27:55.813Z,1004.03
2022-08-25T00:28:27.855Z,1004.03
2022-08-25T00:29:01.694Z,1003.93
2022-08-25T00:29:31.832Z,1003.93
2022-08-25T00:30:05.392Z,1004.13
2022-08-25T00:30:34.949Z,1003.83
2022-08-25T00:30:52.152Z,1003.83
2022-08-25T00:31:24.266Z,1003.83
2022-08-25T00:31:42.398Z,1003.72
2022-08-25T00:32:12.354Z,1003.72
2022-08-25T00:32:34.173Z,1003.93
2022-08-25T00:32:59.774Z,1003.93
2022-08-25T00:33:31.873Z,1003.93
2022-08-25T00:34:03.870Z,1003.83
2022-08-25T00:34:34.198Z,1003.93
2022-08-25T00:34:51.863Z,1003.93
2022-08-25T00:35:24.855Z,1003.93
2022-08-25T00:35:41.475Z,1003.93
2022-08-25T00:36:12.660Z,1003.93
2022-08-25T00:36:34.184Z,1003.93
2022-08-25T00:36:59.860Z,1003.93
2022-08-25T00:37:32.270Z,1003.93
2022-08-25T00:38:04.084Z,1003.93
2022-08-25T00:38:35.052Z,1004.03
2022-08-25T00:38:51.913Z,1004.03
2022-08-25T00:39:23.765Z,1004.03
2022-08-25T00:39:41.470Z,1003.93
2022-08-25T00:40:12.058Z,1003.93
2022-08-25T00:40:34.763Z,1003.83
2022-08-25T00:41:01.319Z,1003.83
2022-08-25T00:41:32.768Z,1003.83
2022-08-25T00:42:04.360Z,1004.03
2022-08-25T00:42:34.193Z,1003.83
2022-08-25T00:42:51.874Z,1003.83
2022-08-25T00:43:23.909Z,1003.83
2022-08-25T00:43:40.926Z,1004.13
2022-08-25T00:44:12.536Z,1004.13
2022-08-25T00:44:34.169Z,1003.72
2022-08-25T00:45:00.616Z,1003.72
2022-08-25T00:45:32.062Z,1003.72
2022-08-25T00:46:03.859Z,1003.83
2022-08-25T00:46:35.371Z,1004.03
2022-08-25T00:46:52.836Z,1004.03
2022-08-25T00:47:24.698Z,1004.03
2022-08-25T00:47:41.783Z,1004.13
2022-08-25T00:48:11.870Z,1004.13
2022-08-25T00:48:34.149Z,1004.03
2022-08-25T00:48:59.767Z,1004.03
2022-08-25T00:49:32.441Z,1004.03
2022-08-25T00:50:03.966Z,1004.03
2022-08-25T00:50:35.962Z,1003.93
2022-08-25T00:51:09.086Z,1003.93
2022-08-25T00:51:35.170Z,1003.93
2022-08-25T00:51:55.796Z,1003.93
2022-08-25T00:52:27.821Z,1003.93
2022-08-25T00:53:00.495Z,1004.03
2022-08-25T00:53:31.772Z,1004.03
2022-08-25T00:54:04.409Z,1003.72
2022-08-25T00:54:35.350Z,1004.03
2022-08-25T00:54:52.866Z,1004.03
2022-08-25T00:55:23.989Z,1004.03
2022-08-25T00:55:41.013Z,1003.83
2022-08-25T00:56:12.394Z,1003.83
2022-08-25T00:56:36.332Z,1003.83
2022-08-25T00:56:59.750Z,1003.83
2022-08-25T00:57:34.678Z,1003.83
2022-08-25T00:58:04.021Z,1003.93
2022-08-25T00:58:35.225Z,1003.83
2022-08-25T00:58:51.703Z,1003.83
2022-08-25T00:59:24.481Z,1003.83
2022-08-25T00:59:41.501Z,1004.13
2022-08-25T01:00:11.997Z,1004.13
2022-08-25T01:00:35.860Z,1004.03
2022-08-25T01:00:59.853Z,1004.03
2022-08-25T01:01:32.661Z,1004.03
2022-08-25T01:02:04.129Z,1004.03
2022-08-25T01:02:36.165Z,1004.03
2022-08-25T01:03:07.861Z,1004.03
2022-08-25T01:03:35.766Z,1003.93
2022-08-25T01:03:56.522Z,1003.93
2022-08-25T01:04:28.015Z,1003.93
2022-08-25T01:05:00.544Z,1004.03
2022-08-25T01:05:31.752Z,1004.03
2022-08-25T01:06:05.467Z,1004.13
2022-08-25T01:06:34.225Z,1003.93
2022-08-25T01:06:51.872Z,1003.93
2022-08-25T01:07:23.904Z,1003.93
2022-08-25T01:07:41.069Z,1004.03
2022-08-25T01:08:12.414Z,1004.03
2022-08-25T01:08:34.950Z,1003.93
2022-08-25T01:08:59.786Z,1003.93
2022-08-25T01:09:31.869Z,1003.93
2022-08-25T01:10:03.963Z,1003.93
2022-08-25T01:10:34.640Z,1004.03
2022-08-25T01:10:52.408Z,1004.03
2022-08-25T01:11:24.792Z,1004.03
2022-08-25T01:11:42.008Z,1003.93
2022-08-25T01:12:11.912Z,1003.93
2022-08-25T01:12:35.401Z,1004.03
2022-08-25T01:12:59.732Z,1004.03
2022-08-25T01:13:33.359Z,1004.03
2022-08-25T01:14:03.879Z,1003.93
2022-08-25T01:14:34.975Z,1003.93
2022-08-25T01:14:51.886Z,1003.93
2022-08-25T01:15:24.298Z,1003.93
2022-08-25T01:15:41.685Z,1003.83
2022-08-25T01:16:11.852Z,1003.83
2022-08-25T01:16:35.382Z,1004.23
2022-08-25T01:16:59.850Z,1004.23
2022-08-25T01:17:31.776Z,1004.23
2022-08-25T01:18:04.795Z,1003.83
2022-08-25T01:18:34.174Z,1004.03
2022-08-25T01:18:52.095Z,1004.03
2022-08-25T01:19:23.865Z,1004.03
2022-08-25T01:19:40.948Z,1004.03
2022-08-25T01:20:12.475Z,1004.03
2022-08-25T01:20:34.150Z,1004.03
2022-08-25T01:20:59.943Z,1004.03
2022-08-25T01:21:31.923Z,1004.03
2022-08-25T01:22:04.823Z,1004.13
2022-08-25T01:22:34.268Z,1003.93
2022-08-25T01:22:55.246Z,1003.93
2022-08-25T01:23:24.546Z,1003.93
2022-08-25T01:23:41.798Z,1004.03
2022-08-25T01:24:11.835Z,1004.03
2022-08-25T01:24:35.632Z,1004.03
2022-08-25T01:24:59.807Z,1004.03
2022-08-25T01:25:32.642Z,1004.03
2022-08-25T01:26:03.949Z,1004.13
2022-08-25T01:26:34.862Z,1003.93
2022-08-25T01:27:07.761Z,1003.93
2022-08-25T01:27:34.150Z,1003.93
2022-08-25T01:27:56.005Z,1003.93
2022-08-25T01:28:27.818Z,1003.93
2022-08-25T01:29:00.393Z,1004.03
2022-08-25T01:29:33.219Z,1004.03
2022-08-25T01:30:05.824Z,1004.13
2022-08-25T01:30:34.188Z,1003.72
2022-08-25T01:30:51.970Z,1003.72
2022-08-25T01:31:24.464Z,1003.72
2022-08-25T01:31:41.199Z,1003.93
2022-08-25T01:32:12.389Z,1003.93
2022-08-25T01:32:34.132Z,1003.93
2022-08-25T01:32:59.746Z,1003.93
2022-08-25T01:33:32.814Z,1003.93
2022-08-25T01:34:03.746Z,1004.13
2022-08-25T01:34:35.614Z,1004.03
2022-08-25T01:35:07.962Z,1004.03
2022-08-25T01:35:35.573Z,1004.23
2022-08-25T01:35:56.054Z,1004.23
2022-08-25T01:36:27.715Z,1004.23
2022-08-25T01:37:00.477Z,1003.72
2022-08-25T01:37:31.745Z,1003.72
2022-08-25T01:38:04.945Z,1004.03
2022-08-25T01:38:34.151Z,1004.13
2022-08-25T01:38:52.343Z,1004.13
2022-08-25T01:39:23.728Z,1004.13
2022-08-25T01:39:40.869Z,1004.13
2022-08-25T01:40:12.552Z,1004.13
2022-08-25T01:40:36.089Z,1004.03
2022-08-25T01:41:00.001Z,1004.03
2022-08-25T01:41:31.717Z,1004.03
2022-08-25T01:42:03.745Z,1004.13
2022-08-25T01:42:34.164Z,1004.13
2022-08-25T01:42:51.832Z,1004.13
2022-08-25T01:43:24.223Z,1004.13
2022-08-25T01:43:41.740Z,1004.13
2022-08-25T01:44:16.157Z,1004.13
2022-08-25T01:44:34.572Z,1004.13
2022-08-25T01:44:59.727Z,1004.13
2022-08-25T01:45:31.997Z,1004.13
2022-08-25T01:46:03.855Z,1003.93
2022-08-25T01:46:34.294Z,1003.83
2022-08-25T01:46:52.320Z,1003.83
2022-08-25T01:47:24.619Z,1003.83
2022-08-25T01:47:41.754Z,1004.03
2022-08-25T01:48:11.853Z,1004.03
2022-08-25T01:48:36.311Z,1003.83
2022-08-25T01:49:02.780Z,1003.83
2022-08-25T01:49:32.744Z,1003.83
2022-08-25T01:50:04.426Z,1004.13
2022-08-25T01:50:34.155Z,1004.13
2022-08-25T01:50:51.909Z,1004.13
2022-08-25T01:51:23.766Z,1004.13
2022-08-25T01:51:41.643Z,1003.93
2022-08-25T01:52:12.222Z,1003.93
2022-08-25T01:52:36.175Z,1004.13
2022-08-25T01:52:59.828Z,1004.13
2022-08-25T01:53:33.423Z,1004.13
2022-08-25T01:54:04.614Z,1004.03
2022-08-25T01:54:34.745Z,1003.93
2022-08-25T01:54:52.171Z,1003.93
2022-08-25T01:55:24.435Z,1003.93
2022-08-25T01:55:41.952Z,1004.03
2022-08-25T01:56:11.725Z,1004.03
2022-08-25T01:56:34.153Z,1004.13
2022-08-25T01:56:59.756Z,1004.13
2022-08-25T01:57:34.441Z,1004.13
2022-08-25T01:58:04.098Z,1004.13
2022-08-25T01:58:34.161Z,1004.03
2022-08-25T01:58:52.576Z,1004.03
2022-08-25T01:59:24.060Z,1004.03
2022-08-25T01:59:40.860Z,1004.23
2022-08-25T02:00:12.005Z,1004.23
2022-08-25T02:00:36.297Z,1004.33
2022-08-25T02:01:00.853Z,1004.33
2022-08-25T02:01:31.839Z,1004.33
2022-08-25T02:02:05.482Z,1003.93
2022-08-25T02:02:34.217Z,1004.13
2022-08-25T02:02:52.299Z,1004.13
2022-08-25T02:03:23.754Z,1004.13
2022-08-25T02:03:42.280Z,1004.03
2022-08-25T02:04:12.784Z,1004.03
2022-08-25T02:04:35.701Z,1004.03
2022-08-25T02:04:59.791Z,1004.03
2022-08-25T02:05:31.974Z,1004.03
2022-08-25T02:06:04.227Z,1004.03
2022-08-25T02:06:35.335Z,1004.03
2022-08-25T02:06:52.720Z,1004.03
2022-08-25T02:07:24.321Z,1004.03
2022-08-25T02:07:42.804Z,1004.03
2022-08-25T02:08:11.710Z,1004.03
2022-08-25T02:08:34.153Z,1004.03
2022-08-25T02:08:59.695Z,1004.03
2022-08-25T02:09:32.215Z,1004.03
2022-08-25T02:10:03.940Z,1004.03
2022-08-25T02:10:34.817Z,1004.23
2022-08-25T02:11:07.703Z,1004.23
2022-08-25T02:11:34.272Z,1003.93
2022-08-25T02:11:55.832Z,1003.93
2022-08-25T02:12:27.828Z,1003.93
2022-08-25T02:13:01.444Z,1004.13
2022-08-25T02:13:32.647Z,1004.13
2022-08-25T02:14:04.332Z,1004.23
2022-08-25T02:14:34.856Z,1003.93
2022-08-25T02:14:51.851Z,1003.93
2022-08-25T02:15:24.502Z,1003.93
2022-08-25T02:15:41.673Z,1003.93
2022-08-25T02:16:12.240Z,1003.93
2022-08-25T02:16:35.351Z,1003.93
2022-08-25T02:16:59.880Z,1003.93
2022-08-25T02:17:31.770Z,1003.93
2022-08-25T02:18:03.761Z,1004.13
2022-08-25T02:18:34.270Z,1004.03
2022-08-25T02:18:51.763Z,1004.03
2022-08-25T02:19:24.385Z,1004.03
2022-08-25T02:19:41.750Z,1004.03
2022-08-25T02:20:11.836Z,1004.03
2022-08-25T02:20:34.169Z,1003.93
2022-08-25T02:20:59.928Z,1003.93
2022-08-25T02:21:32.443Z,1003.93
2022-08-25T02:22:03.840Z,1003.93
2022-08-25T02:22:34.965Z,1004.03
2022-08-25T02:22:56.723Z,1004.03
2022-08-25T02:23:23.720Z,1004.03
2022-08-25T02:23:41.727Z,1004.03
2022-08-25T02:24:11.831Z,1004.03
2022-08-25T02:24:34.224Z,1004.33
2022-08-25T02:24:59.752Z,1004.33
2022-08-25T02:25:31.813Z,1004.33
2022-08-25T02:26:04.752Z,1004.13
2022-08-25T02:26:34.155Z,1004.03
2022-08-25T02:26:51.894Z,1004.03
2022-08-25T02:27:23.704Z,1004.03
2022-08-25T02:27:40.891Z,1003.93
2022-08-25T02:28:13.091Z,1003.93
2022-08-25T02:28:34.158Z,1003.93
2022-08-25T02:28:59.808Z,1003.93
2022-08-25T02:29:32.595Z,1003.93
2022-08-25T02:30:04.815Z,1003.93
2022-08-25T02:30:34.264Z,1004.03
2022-08-25T02:30:51.892Z,1004.03
2022-08-25T02:31:24.185Z,1004.03
2022-08-25T02:31:42.417Z,1003.93
2022-08-25T02:32:12.782Z,1003.93
2022-08-25T02:32:34.203Z,1004.03
2022-08-25T02:32:59.697Z,1004.03
2022-08-25T02:33:32.216Z,1004.03
2022-08-25T02:34:03.831Z,1004.13
2022-08-25T02:34:34.842Z,1003.93
2022-08-25T02:35:07.799Z,1003.93
2022-08-25T02:35:34.499Z,1003.93
2022-08-25T02:35:55.831Z,1003.93
2022-08-25T02:36:28.600Z,1003.93
2022-08-25T02:37:01.205Z,1003.83
2022-08-25T02:37:31.733Z,1003.83
2022-08-25T02:38:04.874Z,1004.03
2022-08-25T02:38:34.156Z,1003.93
2022-08-25T02:38:52.506Z,1003.93
2022-08-25T02:39:23.768Z,1003.93
2022-08-25T02:39:40.818Z,1004.23
2022-08-25T02:40:12.730Z,1004.23
2022-08-25T02:40:35.054Z,1003.93
2022-08-25T02:40:59.816Z,1003.93
2022-08-25T02:41:31.898Z,1003.93
2022-08-25T02:42:03.818Z,1003.93
2022-08-25T02:42:34.760Z,1003.93
2022-08-25T02:43:07.707Z,1003.93
2022-08-25T02:43:34.239Z,1004.03
2022-08-25T02:43:55.855Z,1004.03
2022-08-25T02:44:28.393Z,1004.03
2022-08-25T02:44:59.709Z,1004.03
2022-08-25T02:45:32.842Z,1004.03
2022-08-25T02:46:03.809Z,1003.83
2022-08-25T02:46:35.605Z,1003.93
2022-08-25T02:47:07.709Z,1003.93
2022-08-25T02:47:34.190Z,1004.03
2022-08-25T02:47:55.731Z,1004.03
2022-08-25T02:48:27.808Z,1004.03
2022-08-25T02:49:00.433Z,1003.83
2022-08-25T02:49:33.724Z,1003.83
2022-08-25T02:50:04.356Z,1003.72
2022-08-25T02:50:34.166Z,1003.72
2022-08-25T02:50:53.640Z,1003.72
2022-08-25T02:51:24.886Z,1003.72
2022-08-25T02:51:42.159Z,1003.83
2022-08-25T02:52:12.356Z,1003.83
2022-08-25T02:52:35.020Z,1003.83
2022-08-25T02:53:00.548Z,1003.83
2022-08-25T02:53:32.222Z,1003.83
2022-08-25T02:54:04.629Z,1003.83
2022-08-25T02:54:35.444Z,1003.83
2022-08-25T02:55:07.831Z,1003.83
2022-08-25T02:55:34.649Z,1003.72
2022-08-25T02:55:55.944Z,1003.72
2022-08-25T02:56:27.695Z,1003.72
2022-08-25T02:57:00.408Z,1003.83
2022-08-25T02:57:31.707Z,1003.83
2022-08-25T02:58:04.729Z,1003.93
2022-08-25T02:58:34.183Z,1003.83
2022-08-25T02:58:54.461Z,1003.83
2022-08-25T02:59:23.739Z,1003.83
2022-08-25T02:59:40.811Z,1003.72
2022-08-25T03:00:13.700Z,1003.72
2022-08-25T03:00:35.271Z,1003.72
2022-08-25T03:01:00.024Z,1003.72
2022-08-25T03:01:31.733Z,1003.72
2022-08-25T03:02:03.692Z,1004.03
2022-08-25T03:02:35.346Z,1003.83
2022-08-25T03:02:51.899Z,1003.83
2022-08-25T03:03:24.182Z,1003.83
2022-08-25T03:03:41.432Z,1003.83
2022-08-25T03:04:11.736Z,1003.83
2022-08-25T03:04:35.012Z,1003.83
2022-08-25T03:04:59.875Z,1003.83
2022-08-25T03:05:32.384Z,1003.83
2022-08-25T03:06:04.678Z,1003.83
2022-08-25T03:06:35.316Z,1003.83
2022-08-25T03:06:53.898Z,1003.83
2022-08-25T03:07:23.780Z,1003.83
2022-08-25T03:07:42.209Z,1003.83
2022-08-25T03:08:11.663Z,1003.83
2022-08-25T03:08:44.633Z,1003.83
2022-08-25T03:09:15.709Z,1003.83
2022-08-25T03:09:34.309Z,1003.72
2022-08-25T03:10:03.896Z,1003.72
2022-08-25T03:10:35.739Z,1003.93
2022-08-25T03:11:08.317Z,1003.93
2022-08-25T03:11:34.967Z,1003.72
2022-08-25T03:11:56.199Z,1003.72
2022-08-25T03:12:27.782Z,1003.72
2022-08-25T03:13:01.240Z,1003.62
2022-08-25T03:13:31.645Z,1003.62
2022-08-25T03:14:04.428Z,1003.52
2022-08-25T03:14:35.070Z,1003.52
2022-08-25T03:14:51.661Z,1003.52
2022-08-25T03:15:24.880Z,1003.52
2022-08-25T03:15:43.035Z,1003.52
2022-08-25T03:16:12.563Z,1003.52
2022-08-25T03:16:34.308Z,1003.52
2022-08-25T03:16:59.798Z,1003.52
2022-08-25T03:17:31.755Z,1003.52
2022-08-25T03:18:03.827Z,1003.52
2022-08-25T03:18:34.280Z,1003.62
2022-08-25T03:18:51.661Z,1003.62
2022-08-25T03:19:24.283Z,1003.62
2022-08-25T03:19:42.189Z,1003.52
2022-08-25T03:20:11.837Z,1003.52
2022-08-25T03:20:35.121Z,1003.62
2022-08-25T03:20:59.805Z,1003.62
2022-08-25T03:21:32.272Z,1003.62
2022-08-25T03:22:03.796Z,1003.52
2022-08-25T03:22:35.560Z,1003.52
2022-08-25T03:23:08.687Z,1003.52
2022-08-25T03:23:36.263Z,1003.83
2022-08-25T03:23:57.561Z,1003.83
2022-08-25T03:24:27.826Z,1003.83
2022-08-25T03:25:00.513Z,1003.72
2022-08-25T03:25:31.846Z,1003.72
2022-08-25T03:26:04.427Z,1003.42
2022-08-25T03:26:35.073Z,1003.52
2022-08-25T03:26:51.566Z,1003.52
2022-08-25T03:27:24.047Z,1003.52
2022-08-25T03:27:41.209Z,1003.62
2022-08-25T03:28:12.340Z,1003.62
2022-08-25T03:28:34.154Z,1003.62
2022-08-25T03:28:59.790Z,1003.62
2022-08-25T03:29:31.688Z,1003.62
2022-08-25T03:30:03.891Z,1003.72
2022-08-25T03:30:36.180Z,1003.52
2022-08-25T03:31:07.751Z,1003.52
2022-08-25T03:31:34.287Z,1003.72
2022-08-25T03:31:55.854Z,1003.72
2022-08-25T03:32:28.450Z,1003.72
2022-08-25T03:32:59.677Z,1003.62
2022-08-25T03:33:32.737Z,1003.62
2022-08-25T03:34:03.859Z,1003.72
2022-08-25T03:34:35.756Z,1003.42
2022-08-25T03:35:08.699Z,1003.42
2022-08-25T03:35:35.272Z,1003.62
2022-08-25T03:35:55.823Z,1003.62
2022-08-25T03:36:27.748Z,1003.62
2022-08-25T03:37:00.780Z,1003.62
2022-08-25T03:37:31.662Z,1003.62
2022-08-25T03:38:04.704Z,1003.62
2022-08-25T03:38:35.115Z,1003.62
2022-08-25T03:38:51.567Z,1003.62
2022-08-25T03:39:23.701Z,1003.62
2022-08-25T03:39:41.825Z,1003.32
2022-08-25T03:40:15.393Z,1003.32
2022-08-25T03:40:34.181Z,1003.52
2022-08-25T03:40:59.834Z,1003.52
2022-08-25T03:41:31.697Z,1003.52
2022-08-25T03:42:03.659Z,1003.22
2022-08-25T03:42:34.353Z,1003.42
2022-08-25T03:42:51.767Z,1003.42
2022-08-25T03:43:24.624Z,1003.42
2022-08-25T03:43:42.153Z,1003.42
2022-08-25T03:44:11.649Z,1003.42
2022-08-25T03:44:34.186Z,1003.42
2022-08-25T03:44:59.665Z,1003.42
2022-08-25T03:45:33.574Z,1003.42
2022-08-25T03:46:04.777Z,1003.52
2022-08-25T03:46:35.148Z,1003.52
2022-08-25T03:46:51.573Z,1003.52
2022-08-25T03:47:24.734Z,1003.52
2022-08-25T03:47:42.304Z,1003.32
2022-08-25T03:48:11.738Z,1003.32
2022-08-25T03:48:35.051Z,1003.42
2022-08-25T03:48:59.701Z,1003.42
2022-08-25T03:49:31.644Z,1003.42
2022-08-25T03:50:04.524Z,1003.22
2022-08-25T03:50:37.149Z,1003.32
2022-08-25T03:51:08.279Z,1003.32
2022-08-25T03:51:34.724Z,1003.42
2022-08-25T03:51:55.725Z,1003.42
2022-08-25T03:52:28.693Z,1003.42
2022-08-25T03:52:59.722Z,1003.42
2022-08-25T03:53:33.143Z,1003.42
2022-08-25T03:54:03.635Z,1003.42
2022-08-25T03:54:34.952Z,1003.32
2022-08-25T03:54:51.562Z,1003.32
2022-08-25T03:55:24.728Z,1003.32
2022-08-25T03:55:42.544Z,1003.42
2022-08-25T03:56:11.667Z,1003.42
2022-08-25T03:56:36.560Z,1003.52
2022-08-25T03:56:59.742Z,1003.52
2022-08-25T03:57:31.873Z,1003.52
2022-08-25T03:58:04.448Z,1003.42
2022-08-25T03:58:36.685Z,1003.42
2022-08-25T03:59:08.404Z,1003.42
2022-08-25T03:59:34.229Z,1003.52
2022-08-25T04:00:00.836Z,1003.52
2022-08-25T04:00:27.643Z,1003.52
2022-08-25T04:00:59.801Z,1003.42
2022-08-25T04:01:32.252Z,1003.42
2022-08-25T04:02:05.860Z,1003.62
2022-08-25T04:02:36.509Z,1003.32
2022-08-25T04:03:08.475Z,1003.32
2022-08-25T04:03:34.306Z,1003.32
2022-08-25T04:03:55.765Z,1003.32
2022-08-25T04:04:27.753Z,1003.32
2022-08-25T04:05:00.462Z,1003.32
2022-08-25T04:05:31.683Z,1003.32
2022-08-25T04:06:04.313Z,1003.22
2022-08-25T04:06:34.165Z,1003.22
2022-08-25T04:06:52.446Z,1003.22
2022-08-25T04:07:24.498Z,1003.22
2022-08-25T04:07:40.768Z,1003.42
2022-08-25T04:08:12.396Z,1003.42
2022-08-25T04:08:35.162Z,1003.52
2022-08-25T04:08:59.738Z,1003.52
2022-08-25T04:09:36.387Z,1003.52
2022-08-25T04:10:03.759Z,1003.42
2022-08-25T04:10:35.365Z,1003.42
2022-08-25T04:11:07.745Z,1003.42
2022-08-25T04:11:34.175Z,1003.42
2022-08-25T04:11:56.546Z,1003.42
2022-08-25T04:12:27.713Z,1003.42
2022-08-25T04:13:00.473Z,1003.42
2022-08-25T04:13:32.790Z,1003.42
2022-08-25T04:14:04.139Z,1003.52
2022-08-25T04:14:34.194Z,1003.42
2022-08-25T04:14:51.643Z,1003.42
2022-08-25T04:15:23.829Z,1003.42
2022-08-25T04:15:40.893Z,1003.32
2022-08-25T04:16:12.164Z,1003.32
2022-08-25T04:16:35.534Z,1003.52
2022-08-25T04:16:59.715Z,1003.52
2022-08-25T04:17:31.655Z,1003.52
2022-08-25T04:18:03.865Z,1003.52
2022-08-25T04:18:35.105Z,1003.62
2022-08-25T04:18:51.576Z,1003.62
2022-08-25T04:19:24.432Z,1003.62
2022-08-25T04:19:42.063Z,1003.52
2022-08-25T04:20:14.106Z,1003.52
2022-08-25T04:20:34.378Z,1003.62
2022-08-25T04:21:00.503Z,1003.62
2022-08-25T04:21:32.264Z,1003.62
2022-08-25T04:22:03.730Z,1003.42
2022-08-25T04:22:34.805Z,1003.52
2022-08-25T04:22:51.734Z,1003.52
2022-08-25T04:23:23.626Z,1003.52
2022-08-25T04:23:41.392Z,1003.52
2022-08-25T04:24:11.707Z,1003.52
2022-08-25T04:24:37.236Z,1003.42
2022-08-25T04:24:59.704Z,1003.42
2022-08-25T04:25:31.839Z,1003.42
2022-08-25T04:26:04.526Z,1003.42
2022-08-25T04:26:34.616Z,1003.52
2022-08-25T04:27:08.960Z,1003.52
2022-08-25T04:27:35.421Z,1003.32
2022-08-25T04:27:55.769Z,1003.32
2022-08-25T04:28:27.660Z,1003.32
2022-08-25T04:28:59.639Z,1003.42
2022-08-25T04:29:31.709Z,1003.42
2022-08-25T04:30:03.912Z,1003.22
2022-08-25T04:30:35.191Z,1003.42
2022-08-25T04:30:52.790Z,1003.42
2022-08-25T04:31:24.263Z,1003.42
2022-08-25T04:31:42.298Z,1003.32
2022-08-25T04:32:11.861Z,1003.32
2022-08-25T04:32:35.073Z,1003.32
2022-08-25T04:32:59.640Z,1003.32
2022-08-25T04:33:32.338Z,1003.32
2022-08-25T04:34:03.865Z,1003.42
2022-08-25T04:34:34.785Z,1003.42
2022-08-25T04:35:07.885Z,1003.42
2022-08-25T04:35:36.130Z,1003.11
2022-08-25T04:35:55.886Z,1003.11
2022-08-25T04:36:28.787Z,1003.11
2022-08-25T04:37:00.238Z,1003.22
2022-08-25T04:37:31.810Z,1003.22
2022-08-25T04:38:04.487Z,1003.32
2022-08-25T04:38:35.086Z,1003.22
2022-08-25T04:38:51.622Z,1003.22
2022-08-25T04:39:23.772Z,1003.22
2022-08-25T04:39:42.618Z,1003.22
2022-08-25T04:40:12.685Z,1003.22
2022-08-25T04:40:34.605Z,1003.52
2022-08-25T04:40:59.917Z,1003.52
2022-08-25T04:41:34.349Z,1003.52
2022-08-25T04:42:03.702Z,1003.22
2022-08-25T04:42:35.301Z,1003.01
2022-08-25T04:42:51.724Z,1003.01
2022-08-25T04:43:24.350Z,1003.01
2022-08-25T04:43:41.434Z,1003.11
2022-08-25T04:44:11.685Z,1003.11
2022-08-25T04:44:35.615Z,1003.32
2022-08-25T04:45:00.664Z,1003.32
2022-08-25T04:45:32.416Z,1003.32
2022-08-25T04:46:03.887Z,1003.11
2022-08-25T04:46:35.128Z,1003.11
2022-08-25T04:46:51.548Z,1003.11
2022-08-25T04:47:23.710Z,1003.11
2022-08-25T04:47:43.847Z,1003.01
2022-08-25T04:48:14.966Z,1003.01
2022-08-25T04:48:34.334Z,1003.32
2022-08-25T04:49:01.510Z,1003.32
2022-08-25T04:49:31.716Z,1003.32
2022-08-25T04:50:05.322Z,1003.22
2022-08-25T04:50:36.580Z,1003.22
2022-08-25T04:51:08.276Z,1003.22
2022-08-25T04:51:34.198Z,1003.32
2022-08-25T04:51:55.710Z,1003.32
2022-08-25T04:52:27.798Z,1003.32
2022-08-25T04:52:59.794Z,1003.32
2022-08-25T04:53:31.845Z,1003.32
2022-08-25T04:54:03.738Z,1003.32
2022-08-25T04:54:37.375Z,1003.32
2022-08-25T04:55:09.050Z,1003.32
2022-08-25T04:55:35.043Z,1003.11
2022-08-25T04:55:55.777Z,1003.11
2022-08-25T04:56:28.581Z,1003.11
2022-08-25T04:57:00.600Z,1003.11
2022-08-25T04:57:32.043Z,1003.11
2022-08-25T04:58:04.482Z,1003.11
2022-08-25T04:58:34.346Z,1003.42
2022-08-25T04:58:51.869Z,1003.42
2022-08-25T04:59:23.806Z,1003.42
2022-08-25T04:59:40.885Z,1003.01
2022-08-25T05:00:12.497Z,1003.01
2022-08-25T05:00:35.838Z,1003.22
2022-08-25T05:00:59.915Z,1003.22
2022-08-25T05:01:32.827Z,1003.22
2022-08-25T05:02:03.763Z,1003.22
2022-08-25T05:02:35.721Z,1002.91
2022-08-25T05:03:07.685Z,1002.91
2022-08-25T05:03:34.231Z,1002.91
2022-08-25T05:03:55.895Z,1002.91
2022-08-25T05:04:29.465Z,1002.91
2022-08-25T05:04:59.811Z,1003.11
2022-08-25T05:05:32.445Z,1003.11
2022-08-25T05:06:03.686Z,1003.01
2022-08-25T05:06:34.797Z,1003.11
2022-08-25T05:06:51.779Z,1003.11
2022-08-25T05:07:23.785Z,1003.11
2022-08-25T05:07:42.821Z,1003.11
2022-08-25T05:08:11.753Z,1003.11
2022-08-25T05:08:34.247Z,1003.11
2022-08-25T05:08:59.721Z,1003.11
2022-08-25T05:09:32.428Z,1003.11
2022-08-25T05:10:04.549Z,1003.11
2022-08-25T05:10:35.007Z,1003.01
2022-08-25T05:10:51.598Z,1003.01
2022-08-25T05:11:23.960Z,1003.01
2022-08-25T05:11:40.845Z,1002.91
2022-08-25T05:12:12.406Z,1002.91
2022-08-25T05:12:35.361Z,1002.91
2022-08-25T05:12:59.762Z,1002.91
2022-08-25T05:13:31.737Z,1002.91
2022-08-25T05:14:04.785Z,1003.01
2022-08-25T05:14:34.296Z,1003.11
2022-08-25T05:14:51.672Z,1003.11
2022-08-25T05:15:25.105Z,1003.11
2022-08-25T05:15:41.720Z,1003.11
2022-08-25T05:16:11.838Z,1003.11
2022-08-25T05:16:34.398Z,1003.11
2022-08-25T05:16:59.700Z,1003.11
2022-08-25T05:17:33.160Z,1003.11
2022-08-25T05:18:03.733Z,1003.11
2022-08-25T05:18:35.165Z,1003.22
2022-08-25T05:18:51.704Z,1003.22
2022-08-25T05:19:23.763Z,1003.22
2022-08-25T05:19:41.447Z,1003.01
2022-08-25T05:20:11.803Z,1003.01
2022-08-25T05:20:34.287Z,1003.11
2022-08-25T05:20:59.855Z,1003.11
2022-08-25T05:21:31.700Z,1003.11
2022-08-25T05:22:05.343Z,1003.22
2022-08-25T05:22:34.368Z,1002.91
2022-08-25T05:22:51.737Z,1002.91
2022-08-25T05:23:23.777Z,1002.91
2022-08-25T05:23:40.851Z,1003.32
2022-08-25T05:24:13.170Z,1003.32
2022-08-25T05:24:34.240Z,1003.01
2022-08-25T05:25:01.006Z,1003.01
2022-08-25T05:25:31.779Z,1003.01
2022-08-25T05:26:04.761Z,1003.01
2022-08-25T05:26:34.293Z,1003.11
2022-08-25T05:26:51.691Z,1003.11
2022-08-25T05:27:24.338Z,1003.11
2022-08-25T05:27:41.404Z,1003.01
2022-08-25T05:28:11.735Z,1003.01
2022-08-25T05:28:34.348Z,1003.11
2022-08-25T05:29:15.784Z,1003.11
2022-08-25T05:29:34.554Z,1003.22
2022-08-25T05:30:04.856Z,1003.22
2022-08-25T05:30:36.232Z,1003.22
2022-08-25T05:31:07.733Z,1003.22
2022-08-25T05:31:36.399Z,1003.11
2022-08-25T05:31:55.941Z,1003.11
2022-08-25T05:32:28.558Z,1003.11
2022-08-25T05:33:00.299Z,1003.01
2022-08-25T05:33:32.725Z,1003.01
2022-08-25T05:34:04.210Z,1003.11
2022-08-25T05:34:34.253Z,1003.22